createdAt,value
2019-01-12T00:00:23.838Z,2.10
2019-01-12T00:02:52.285Z,2.10
2019-01-12T00:05:20.709Z,2.10
2019-01-12T00:07:49.156Z,2.20
2019-01-12T00:10:17.574Z,2.20
2019-01-12T00:12:46.024Z,2.20
2019-01-12T00:15:14.524Z,2.10
2019-01-12T00:17:42.977Z,2.20
2019-01-12T00:20:11.542Z,2.30
2019-01-12T00:22:39.966Z,2.20
2019-01-12T00:25:08.960Z,2.30
2019-01-12T00:27:37.383Z,2.20
2019-01-12T00:30:11.650Z,2.30
2019-01-12T00:32:40.078Z,2.20
2019-01-12T00:35:08.655Z,2.20
2019-01-12T00:37:37.342Z,2.10
2019-01-12T00:40:08.019Z,2.20
2019-01-12T00:42:36.494Z,2.30
2019-01-12T00:45:08.695Z,2.40
2019-01-12T00:47:37.143Z,2.30
2019-01-12T00:50:08.918Z,2.30
2019-01-12T00:52:37.350Z,2.20
2019-01-12T00:55:06.559Z,2.30
2019-01-12T00:57:34.988Z,2.30
2019-01-12T01:00:05.347Z,2.20
2019-01-12T01:02:33.766Z,2.20
2019-01-12T01:05:02.222Z,2.20
2019-01-12T01:07:30.642Z,2.20
2019-01-12T01:09:59.078Z,2.20
2019-01-12T01:12:27.643Z,2.30
2019-01-12T01:14:56.078Z,2.20
2019-01-12T01:17:24.507Z,2.20
2019-01-12T01:19:52.955Z,2.20
2019-01-12T01:22:21.383Z,2.30
2019-01-12T01:24:49.830Z,2.20
2019-01-12T01:27:18.259Z,2.20
2019-01-12T01:29:46.748Z,2.30
2019-01-12T01:32:15.175Z,2.30
2019-01-12T01:34:43.606Z,2.30
2019-01-12T01:37:12.068Z,2.30
2019-01-12T01:39:40.510Z,2.30
2019-01-12T01:42:08.955Z,2.40
2019-01-12T01:44:37.387Z,2.40
2019-01-12T01:47:05.909Z,2.30
2019-01-12T01:49:34.393Z,2.40
2019-01-12T01:52:02.836Z,2.50
2019-01-12T01:54:31.262Z,2.60
2019-01-12T01:56:59.699Z,2.50
2019-01-12T01:59:28.150Z,2.50
2019-01-12T02:01:56.671Z,2.50
2019-01-12T02:04:25.116Z,2.40
2019-01-12T02:06:53.560Z,2.40
2019-01-12T02:09:22.014Z,2.50
2019-01-12T02:11:50.604Z,2.50
2019-01-12T02:14:19.067Z,2.60
2019-01-12T02:16:47.564Z,2.50
2019-01-12T02:19:16.005Z,2.50
2019-01-12T02:21:44.449Z,2.60
2019-01-12T02:24:12.887Z,2.70
2019-01-12T02:26:41.316Z,2.70
2019-01-12T02:29:09.752Z,2.60
2019-01-12T02:31:38.208Z,2.70
2019-01-12T02:34:06.639Z,2.60
2019-01-12T02:36:35.064Z,2.60
2019-01-12T02:39:05.295Z,2.70
2019-01-12T02:41:33.719Z,2.70
2019-01-12T02:44:02.167Z,2.70
2019-01-12T02:46:30.589Z,2.60
2019-01-12T02:48:59.031Z,2.60
2019-01-12T02:51:27.467Z,2.60
2019-01-12T02:53:55.915Z,2.60
2019-01-12T02:56:24.346Z,2.70
2019-01-12T02:58:52.796Z,2.80
2019-01-12T03:01:21.244Z,2.90
2019-01-12T03:03:49.717Z,2.80
2019-01-12T03:06:18.135Z,2.80
2019-01-12T03:08:46.566Z,2.70
2019-01-12T03:11:15.003Z,2.80
2019-01-12T03:13:43.446Z,2.80
2019-01-12T03:16:12.044Z,2.80
2019-01-12T03:18:40.483Z,2.80
2019-01-12T03:21:08.908Z,2.80
2019-01-12T03:23:37.328Z,2.80
2019-01-12T03:26:05.758Z,2.80
2019-01-12T03:28:34.191Z,2.70
2019-01-12T03:31:02.619Z,2.70
2019-01-12T03:33:31.056Z,2.80
2019-01-12T03:35:59.475Z,2.90
2019-01-12T03:38:27.910Z,2.80
2019-01-12T03:40:56.343Z,2.80
2019-01-12T03:43:24.790Z,2.80
2019-01-12T03:45:53.202Z,2.70
2019-01-12T03:48:21.648Z,2.80
2019-01-12T03:50:50.221Z,2.90
2019-01-12T03:53:18.721Z,2.90
2019-01-12T03:55:47.138Z,2.80
2019-01-12T03:58:15.574Z,2.80
2019-01-12T04:00:44.005Z,2.80
2019-01-12T04:03:12.487Z,2.70
2019-01-12T04:05:40.939Z,2.70
2019-01-12T04:08:09.366Z,2.70
2019-01-12T04:10:37.798Z,2.70
2019-01-12T04:13:06.237Z,2.70
2019-01-12T04:15:34.665Z,2.70
2019-01-12T04:18:03.078Z,2.80
2019-01-12T04:20:31.536Z,2.80
2019-01-12T04:22:59.953Z,2.80
2019-01-12T04:25:33.573Z,2.90
2019-01-12T04:27:58.666Z,2.90
2019-01-12T04:30:27.117Z,2.90
2019-01-12T04:32:55.543Z,2.90
2019-01-12T04:35:23.984Z,2.80
2019-01-12T04:37:53.376Z,2.80
2019-01-12T04:40:21.827Z,2.80
2019-01-12T04:42:50.390Z,2.80
2019-01-12T04:45:18.894Z,2.90
2019-01-12T04:47:47.318Z,2.80
2019-01-12T04:50:16.198Z,2.90
2019-01-12T04:52:44.630Z,2.90
2019-01-12T04:55:13.418Z,2.90
2019-01-12T04:57:41.918Z,2.90
2019-01-12T05:00:13.391Z,2.90
2019-01-12T05:02:41.843Z,3.00
2019-01-12T05:05:10.415Z,2.90
2019-01-12T05:07:38.824Z,2.90
2019-01-12T05:10:09.923Z,3.00
2019-01-12T05:12:38.359Z,2.90
2019-01-12T05:15:09.551Z,3.00
2019-01-12T05:17:37.975Z,2.90
2019-01-12T05:20:12.327Z,2.90
2019-01-12T05:22:40.813Z,2.90
2019-01-12T05:25:09.334Z,2.90
2019-01-12T05:27:37.752Z,3.00
2019-01-12T05:30:12.226Z,3.00
2019-01-12T05:32:40.662Z,3.00
2019-01-12T05:35:09.235Z,3.00
2019-01-12T05:37:37.694Z,3.10
2019-01-12T05:40:08.354Z,3.10
2019-01-12T05:42:36.851Z,3.00
2019-01-12T05:45:07.309Z,3.00
2019-01-12T05:47:35.835Z,3.00
2019-01-12T05:50:07.196Z,3.00
2019-01-12T05:52:35.635Z,3.00
2019-01-12T05:55:04.728Z,3.10
2019-01-12T05:57:33.207Z,3.10
2019-01-12T06:00:01.635Z,3.10
2019-01-12T06:02:30.064Z,3.20
2019-01-12T06:04:58.495Z,3.20
2019-01-12T06:07:26.945Z,3.10
2019-01-12T06:09:55.425Z,3.10
2019-01-12T06:12:23.869Z,3.20
2019-01-12T06:14:52.297Z,3.10
2019-01-12T06:17:20.801Z,3.20
2019-01-12T06:19:49.231Z,3.20
2019-01-12T06:22:17.662Z,3.10
2019-01-12T06:24:46.092Z,3.20
2019-01-12T06:27:14.530Z,3.30
2019-01-12T06:29:42.954Z,3.10
2019-01-12T06:32:11.385Z,3.20
2019-01-12T06:34:39.811Z,3.10
2019-01-12T06:37:08.316Z,3.10
2019-01-12T06:39:36.743Z,3.20
2019-01-12T06:42:05.281Z,3.20
2019-01-12T06:44:33.698Z,3.30
2019-01-12T06:47:02.134Z,3.30
2019-01-12T06:49:30.550Z,3.30
2019-01-12T06:51:58.985Z,3.30
2019-01-12T06:54:27.408Z,3.30
2019-01-12T06:56:55.830Z,3.30
2019-01-12T06:59:24.273Z,3.40
2019-01-12T07:01:52.778Z,3.30
2019-01-12T07:04:21.279Z,3.20
2019-01-12T07:06:49.708Z,3.20
2019-01-12T07:09:18.135Z,3.30
2019-01-12T07:11:46.595Z,3.30
2019-01-12T07:14:15.027Z,3.40
2019-01-12T07:16:43.447Z,3.30
2019-01-12T07:19:11.903Z,3.30
2019-01-12T07:21:40.352Z,3.30
2019-01-12T07:24:08.790Z,3.30
2019-01-12T07:26:37.224Z,3.40
2019-01-12T07:29:05.730Z,3.40
2019-01-12T07:31:34.181Z,3.40
2019-01-12T07:34:02.621Z,3.50
2019-01-12T07:36:31.056Z,3.50
2019-01-12T07:38:59.486Z,3.50
2019-01-12T07:41:27.901Z,3.50
2019-01-12T07:43:56.332Z,3.50
2019-01-12T07:46:24.801Z,3.60
2019-01-12T07:48:53.271Z,3.50
2019-01-12T07:51:21.772Z,3.50
2019-01-12T07:53:50.215Z,3.50
2019-01-12T07:56:24.488Z,3.50
2019-01-12T07:58:48.797Z,3.50
2019-01-12T08:01:17.218Z,3.50
2019-01-12T08:03:45.649Z,3.60
2019-01-12T08:06:14.082Z,3.60
2019-01-12T08:08:42.523Z,3.50
2019-01-12T08:11:10.958Z,3.70
2019-01-12T08:13:39.380Z,3.70
2019-01-12T08:16:07.804Z,3.80
2019-01-12T08:18:36.233Z,3.60
2019-01-12T08:21:04.928Z,3.60
2019-01-12T08:23:33.354Z,3.60
2019-01-12T08:26:01.803Z,3.60
2019-01-12T08:28:30.229Z,3.60
2019-01-12T08:30:58.665Z,3.70
2019-01-12T08:33:27.993Z,3.70
2019-01-12T08:35:56.434Z,3.80
2019-01-12T08:38:24.901Z,3.70
2019-01-12T08:40:53.389Z,3.80
2019-01-12T08:43:21.840Z,3.80
2019-01-12T08:45:50.305Z,3.80
2019-01-12T08:48:18.712Z,3.80
2019-01-12T08:50:47.165Z,3.80
2019-01-12T08:53:15.589Z,3.80
2019-01-12T08:55:44.018Z,3.90
2019-01-12T08:58:12.443Z,3.90
2019-01-12T09:00:40.873Z,3.90
2019-01-12T09:03:09.296Z,4.00
2019-01-12T09:05:37.745Z,4.00
2019-01-12T09:08:06.175Z,4.10
2019-01-12T09:10:34.628Z,4.20
2019-01-12T09:13:03.060Z,4.10
2019-01-12T09:15:31.479Z,4.20
2019-01-12T09:17:59.908Z,4.20
2019-01-12T09:20:28.315Z,4.20
2019-01-12T09:22:56.751Z,4.20
2019-01-12T09:25:25.165Z,4.20
2019-01-12T09:27:53.671Z,4.20
2019-01-12T09:30:22.267Z,4.20
2019-01-12T09:32:50.926Z,4.20
2019-01-12T09:35:19.421Z,4.30
2019-01-12T09:37:47.921Z,4.30
2019-01-12T09:40:17.787Z,4.30
2019-01-12T09:42:46.374Z,4.30
2019-01-12T09:45:16.849Z,4.30
2019-01-12T09:47:45.575Z,4.20
2019-01-12T09:50:16.131Z,4.20
2019-01-12T09:52:44.698Z,4.30
2019-01-12T09:55:13.272Z,4.30
2019-01-12T09:57:41.707Z,4.20
2019-01-12T10:00:18.604Z,4.20
2019-01-12T10:02:47.308Z,4.10
2019-01-12T10:05:15.871Z,4.10
2019-01-12T10:07:44.404Z,4.10
2019-01-12T10:10:15.725Z,4.20
2019-01-12T10:12:44.490Z,4.20
2019-01-12T10:15:13.659Z,4.20
2019-01-12T10:17:42.092Z,4.10
2019-01-12T10:20:15.481Z,4.10
2019-01-12T10:22:44.787Z,4.20
2019-01-12T10:25:13.627Z,4.20
2019-01-12T10:27:42.075Z,4.30
2019-01-12T10:30:19.743Z,4.30
2019-01-12T10:32:48.189Z,4.40
2019-01-12T10:35:16.603Z,4.40
2019-01-12T10:37:45.101Z,4.30
2019-01-12T10:40:16.083Z,4.20
2019-01-12T10:42:44.752Z,4.30
2019-01-12T10:45:15.453Z,4.20
2019-01-12T10:47:44.387Z,4.20
2019-01-12T10:50:16.368Z,4.20
2019-01-12T10:52:44.857Z,4.20
2019-01-12T10:55:13.399Z,4.20
2019-01-12T10:57:41.882Z,4.20
2019-01-12T11:00:16.121Z,4.20
2019-01-12T11:02:44.534Z,4.10
2019-01-12T11:05:13.098Z,4.20
2019-01-12T11:07:41.505Z,4.20
2019-01-12T11:10:12.189Z,4.20
2019-01-12T11:12:40.697Z,4.20
2019-01-12T11:15:12.205Z,4.20
2019-01-12T11:17:40.829Z,4.20
2019-01-12T11:20:10.442Z,4.20
2019-01-12T11:22:38.927Z,4.20
2019-01-12T11:25:10.310Z,4.20
2019-01-12T11:27:38.719Z,4.30
2019-01-12T11:30:15.372Z,4.30
2019-01-12T11:32:43.799Z,4.30
2019-01-12T11:35:12.289Z,4.30
2019-01-12T11:37:40.792Z,4.40
2019-01-12T11:40:12.670Z,4.40
2019-01-12T11:42:41.082Z,4.40
2019-01-12T11:45:09.655Z,4.30
2019-01-12T11:47:38.078Z,4.40
2019-01-12T11:50:09.587Z,4.40
2019-01-12T11:52:37.998Z,4.30
2019-01-12T11:55:08.681Z,4.30
2019-01-12T11:57:37.104Z,4.30
2019-01-12T12:00:11.526Z,4.20
2019-01-12T12:02:39.949Z,4.20
2019-01-12T12:05:08.431Z,4.20
2019-01-12T12:07:36.885Z,4.20
2019-01-12T12:10:08.622Z,4.30
2019-01-12T12:12:37.056Z,4.20
2019-01-12T12:15:08.905Z,4.20
2019-01-12T12:17:37.350Z,4.20
2019-01-12T12:20:19.669Z,4.20
2019-01-12T12:22:48.175Z,4.20
2019-01-12T12:25:16.844Z,4.20
2019-01-12T12:27:45.343Z,4.20
2019-01-12T12:30:22.134Z,4.30
2019-01-12T12:32:50.568Z,4.30
2019-01-12T12:35:19.062Z,4.20
2019-01-12T12:37:47.557Z,4.30
2019-01-12T12:40:18.325Z,4.30
2019-01-12T12:42:46.834Z,4.20
2019-01-12T12:45:17.700Z,4.20
2019-01-12T12:47:46.198Z,4.20
2019-01-12T12:50:16.160Z,4.30
2019-01-12T12:52:44.663Z,4.20
2019-01-12T12:55:15.135Z,4.20
2019-01-12T12:57:43.799Z,4.20
2019-01-12T13:00:17.574Z,4.20
2019-01-12T13:02:46.039Z,4.20
2019-01-12T13:05:14.521Z,4.10
2019-01-12T13:07:42.959Z,4.10
2019-01-12T13:10:16.854Z,4.00
2019-01-12T13:12:45.295Z,4.10
2019-01-12T13:15:13.790Z,4.10
2019-01-12T13:17:42.370Z,4.00
2019-01-12T13:20:16.222Z,3.90
2019-01-12T13:22:44.738Z,3.90
2019-01-12T13:25:13.299Z,3.90
2019-01-12T13:27:41.728Z,4.00
2019-01-12T13:30:15.655Z,4.00
2019-01-12T13:32:44.154Z,3.90
2019-01-12T13:35:12.652Z,3.90
2019-01-12T13:37:41.101Z,3.80
2019-01-12T13:40:18.094Z,3.80
2019-01-12T13:42:46.523Z,3.80
2019-01-12T13:45:17.285Z,3.90
2019-01-12T13:47:45.715Z,3.90
2019-01-12T13:50:16.906Z,3.90
2019-01-12T13:52:45.342Z,3.90
2019-01-12T13:55:15.210Z,3.90
2019-01-12T13:57:47.716Z,3.90
2019-01-12T14:00:25.555Z,3.80
2019-01-12T14:02:54.122Z,3.80
2019-01-12T14:05:22.682Z,3.90
2019-01-12T14:07:56.080Z,4.00
2019-01-12T14:10:21.686Z,4.00
2019-01-12T14:12:50.119Z,3.90
2019-01-12T14:15:19.374Z,3.80
2019-01-12T14:17:48.061Z,3.90
2019-01-12T14:20:31.010Z,3.80
2019-01-12T14:22:59.472Z,3.80
2019-01-12T14:25:27.892Z,3.80
2019-01-12T14:27:56.367Z,3.60
2019-01-12T14:30:24.871Z,3.70
2019-01-12T14:32:53.337Z,3.70
2019-01-12T14:35:21.766Z,3.70
2019-01-12T14:37:50.440Z,3.70
2019-01-12T14:40:20.093Z,3.60
2019-01-12T14:42:48.802Z,3.60
2019-01-12T14:45:20.562Z,3.60
2019-01-12T14:47:49.088Z,3.50
2019-01-12T14:50:17.509Z,3.50
2019-01-12T14:52:46.088Z,3.50
2019-01-12T14:55:16.868Z,3.60
2019-01-12T14:57:45.363Z,3.60
2019-01-12T15:00:16.892Z,3.60
2019-01-12T15:02:45.326Z,3.50
2019-01-12T15:05:15.965Z,3.50
2019-01-12T15:07:44.637Z,3.50
2019-01-12T15:10:17.866Z,3.50
2019-01-12T15:12:46.902Z,3.50
2019-01-12T15:15:16.994Z,3.50
2019-01-12T15:17:45.542Z,3.40
2019-01-12T15:20:16.925Z,3.40
2019-01-12T15:22:45.413Z,3.40
2019-01-12T15:25:14.387Z,3.40
2019-01-12T15:27:42.805Z,3.30
2019-01-12T15:30:17.388Z,3.30
2019-01-12T15:32:45.805Z,3.30
2019-01-12T15:35:14.885Z,3.30
2019-01-12T15:37:43.562Z,3.20
2019-01-12T15:40:14.930Z,3.20
2019-01-12T15:42:43.340Z,3.20
2019-01-12T15:45:14.609Z,3.10
2019-01-12T15:47:43.189Z,3.10
2019-01-12T15:50:14.462Z,3.10
2019-01-12T15:52:42.894Z,3.10
2019-01-12T15:55:11.389Z,3.00
2019-01-12T15:57:39.807Z,3.10
2019-01-12T16:00:16.979Z,3.10
2019-01-12T16:02:45.471Z,3.00
2019-01-12T16:05:13.968Z,2.90
2019-01-12T16:07:42.380Z,2.90
2019-01-12T16:10:12.047Z,2.90
2019-01-12T16:12:40.458Z,2.80
2019-01-12T16:15:18.074Z,2.70
2019-01-12T16:17:46.577Z,2.60
2019-01-12T16:20:17.735Z,2.50
2019-01-12T16:22:46.149Z,2.50
2019-01-12T16:25:14.576Z,2.50
2019-01-12T16:27:43.079Z,2.40
2019-01-12T16:30:17.510Z,2.40
2019-01-12T16:32:45.987Z,2.30
2019-01-12T16:35:14.691Z,2.40
2019-01-12T16:37:43.651Z,2.30
2019-01-12T16:40:14.994Z,2.40
2019-01-12T16:42:43.579Z,2.40
2019-01-12T16:45:12.087Z,2.40
2019-01-12T16:47:40.593Z,2.50
2019-01-12T16:50:09.110Z,2.50
2019-01-12T16:52:37.535Z,2.50
2019-01-12T16:55:11.423Z,2.60
2019-01-12T16:57:39.861Z,2.50
2019-01-12T17:00:14.027Z,2.50
2019-01-12T17:02:42.459Z,2.60
2019-01-12T17:05:10.941Z,2.70
2019-01-12T17:07:39.533Z,2.60
2019-01-12T17:10:11.062Z,2.60
2019-01-12T17:12:39.480Z,2.70
2019-01-12T17:15:10.470Z,2.80
2019-01-12T17:17:38.916Z,2.80
2019-01-12T17:20:13.133Z,2.80
2019-01-12T17:22:41.606Z,2.80
2019-01-12T17:25:10.085Z,2.80
2019-01-12T17:27:38.525Z,2.80
2019-01-12T17:30:15.570Z,2.80
2019-01-12T17:32:44.079Z,2.90
2019-01-12T17:35:13.121Z,2.90
2019-01-12T17:37:41.558Z,2.90
2019-01-12T17:40:12.422Z,2.90
2019-01-12T17:42:40.915Z,2.90
2019-01-12T17:45:12.547Z,2.80
2019-01-12T17:47:41.246Z,2.90
2019-01-12T17:50:12.565Z,2.90
2019-01-12T17:52:40.988Z,2.90
2019-01-12T17:55:12.422Z,2.90
2019-01-12T17:57:41.085Z,2.90
2019-01-12T18:00:14.254Z,2.90
2019-01-12T18:02:42.702Z,2.90
2019-01-12T18:05:12.237Z,2.90
2019-01-12T18:07:41.649Z,2.90
2019-01-12T18:10:12.861Z,2.90
2019-01-12T18:12:41.370Z,2.90
2019-01-12T18:15:14.786Z,2.90
2019-01-12T18:17:43.299Z,2.90
2019-01-12T18:20:18.684Z,2.90
2019-01-12T18:22:47.152Z,3.00
2019-01-12T18:25:16.851Z,2.90
2019-01-12T18:27:45.598Z,3.00
2019-01-12T18:30:19.402Z,2.90
2019-01-12T18:32:47.925Z,3.00
2019-01-12T18:35:16.478Z,3.00
2019-01-12T18:37:44.970Z,3.00
2019-01-12T18:40:15.848Z,2.90
2019-01-12T18:42:44.350Z,2.90
2019-01-12T18:45:14.842Z,2.90
2019-01-12T18:47:43.249Z,2.90
2019-01-12T18:50:16.995Z,2.90
2019-01-12T18:52:45.429Z,2.90
2019-01-12T18:55:14.601Z,2.90
2019-01-12T18:57:43.026Z,2.80
2019-01-12T19:00:21.751Z,2.90
2019-01-12T19:02:50.314Z,2.90
2019-01-12T19:05:18.816Z,2.90
2019-01-12T19:07:47.604Z,2.90
2019-01-12T19:10:16.160Z,2.80
2019-01-12T19:12:44.738Z,2.80
2019-01-12T19:15:21.837Z,2.70
2019-01-12T19:17:50.258Z,2.70
2019-01-12T19:20:18.693Z,2.70
2019-01-12T19:22:47.187Z,2.70
2019-01-12T19:25:16.463Z,2.70
2019-01-12T19:27:44.871Z,2.70
2019-01-12T19:30:16.396Z,2.60
2019-01-12T19:32:44.807Z,2.60
2019-01-12T19:35:13.254Z,2.60
2019-01-12T19:37:44.288Z,2.60
2019-01-12T19:40:17.917Z,2.60
2019-01-12T19:42:46.344Z,2.70
2019-01-12T19:45:15.919Z,2.70
2019-01-12T19:47:44.483Z,2.70
2019-01-12T19:50:15.646Z,2.70
2019-01-12T19:52:44.068Z,2.80
2019-01-12T19:55:12.578Z,2.80
2019-01-12T19:57:41.007Z,2.80
2019-01-12T20:00:14.727Z,2.90
2019-01-12T20:02:43.154Z,2.90
2019-01-12T20:05:11.671Z,2.90
2019-01-12T20:07:40.090Z,2.90
2019-01-12T20:10:11.399Z,3.00
2019-01-12T20:12:39.902Z,3.00
2019-01-12T20:15:12.296Z,3.10
2019-01-12T20:17:40.794Z,3.10
2019-01-12T20:20:12.153Z,3.00
2019-01-12T20:22:40.684Z,3.00
2019-01-12T20:25:12.146Z,3.10
2019-01-12T20:27:40.572Z,3.10
2019-01-12T20:30:18.118Z,3.00
2019-01-12T20:33:10.449Z,3.00
2019-01-12T20:35:44.946Z,3.10
2019-01-12T20:38:28.347Z,3.00
2019-01-12T20:41:08.399Z,3.10
2019-01-12T20:44:01.661Z,3.10
2019-01-12T20:46:35.737Z,3.10
2019-01-12T20:49:15.980Z,3.10
2019-01-12T20:51:52.655Z,3.10
2019-01-12T20:54:26.873Z,3.10
2019-01-12T20:57:19.329Z,3.10
2019-01-12T21:00:02.719Z,3.10
2019-01-12T21:02:42.709Z,3.10
2019-01-12T21:05:19.866Z,3.20
2019-01-12T21:07:56.875Z,3.20
2019-01-12T21:10:46.274Z,3.20
2019-01-12T21:13:35.738Z,3.20
2019-01-12T21:16:07.246Z,3.20
2019-01-12T21:18:35.683Z,3.20
2019-01-12T21:21:04.126Z,3.20
2019-01-12T21:23:32.568Z,3.30
2019-01-12T21:26:01.112Z,3.30
2019-01-12T21:28:29.589Z,3.30
2019-01-12T21:30:58.017Z,3.30
2019-01-12T21:33:26.452Z,3.30
2019-01-12T21:35:54.874Z,3.30
2019-01-12T21:38:23.391Z,3.30
2019-01-12T21:40:51.855Z,3.30
2019-01-12T21:43:20.489Z,3.40
2019-01-12T21:45:48.908Z,3.40
2019-01-12T21:48:17.325Z,3.40
2019-01-12T21:50:45.741Z,3.50
2019-01-12T21:53:14.176Z,3.50
2019-01-12T21:55:42.602Z,3.50
2019-01-12T21:58:11.022Z,3.50
2019-01-12T22:00:39.459Z,3.50
2019-01-12T22:03:07.883Z,3.50
2019-01-12T22:05:36.301Z,3.60
2019-01-12T22:08:04.985Z,3.50
2019-01-12T22:10:33.494Z,3.50
2019-01-12T22:13:01.938Z,3.50
2019-01-12T22:15:30.504Z,3.60
2019-01-12T22:17:58.925Z,3.60
2019-01-12T22:20:27.432Z,3.60
2019-01-12T22:22:55.842Z,3.60
2019-01-12T22:25:24.267Z,3.60
2019-01-12T22:27:52.695Z,3.60
2019-01-12T22:30:21.125Z,3.60
2019-01-12T22:32:49.553Z,3.60
2019-01-12T22:35:17.983Z,3.60
2019-01-12T22:37:46.407Z,3.70
2019-01-12T22:40:17.917Z,3.70
2019-01-12T22:42:46.369Z,3.70
2019-01-12T22:45:14.804Z,3.70
2019-01-12T22:47:43.219Z,3.70
2019-01-12T22:50:14.203Z,3.80
2019-01-12T22:52:42.686Z,3.80
2019-01-12T22:55:13.739Z,3.90
2019-01-12T22:57:42.327Z,3.80
2019-01-12T23:00:40.605Z,3.90
2019-01-12T23:03:09.153Z,4.00
2019-01-12T23:05:37.593Z,4.00
2019-01-12T23:08:06.023Z,4.00
2019-01-12T23:10:34.490Z,4.00
2019-01-12T23:13:02.914Z,4.00
2019-01-12T23:15:31.346Z,4.00
2019-01-12T23:17:59.753Z,4.00
2019-01-12T23:20:28.204Z,4.10
2019-01-12T23:22:56.943Z,4.20
2019-01-12T23:25:25.450Z,4.10
2019-01-12T23:27:53.868Z,4.10
2019-01-12T23:30:22.349Z,4.10
2019-01-12T23:32:50.771Z,4.10
2019-01-12T23:35:19.191Z,4.10
2019-01-12T23:37:47.618Z,4.10
2019-01-12T23:40:16.371Z,4.20
2019-01-12T23:42:44.878Z,4.20
2019-01-12T23:45:14.438Z,4.20
2019-01-12T23:47:42.934Z,4.20
2019-01-12T23:50:12.897Z,4.20
2019-01-12T23:52:41.401Z,4.30
2019-01-12T23:55:10.025Z,4.30
2019-01-12T23:57:38.614Z,4.40
